Time;durP1;ratioP1;P1;durP2;ratioP2;P2;SDS_P1;SDS_P2;PMS_P1;PMS_P2;Temp;Humidity;BMP_temperature;BMP_pressure;BME280_temperature;BME280_humidity;BME280_pressure;Samples;Min_cycle;Max_cycle;Signal;HPM_P1;HPM_P2
2022/09/27 00:02:20;;;;;;;;;;;;;;;14.44;56.23;99539.53;5013237;28;20813;-51
2022/09/27 00:04:45;;;;;;;;;;;;;;;14.43;56.22;99542.34;5013398;28;20004;-51
2022/09/27 00:07:10;;;;;;;;;;;;;;;14.43;56.30;99529.09;5014598;28;19933;-50
2022/09/27 00:09:36;;;;;;;;;;;;;;;14.42;56.29;99522.97;5015681;28;20055;-52
2022/09/27 00:12:01;;;;;;;;;;;;;;;14.43;56.28;99519.34;5016436;28;19932;-50
2022/09/27 00:14:26;;;;;;;;;;;;;;;14.42;56.33;99524.78;5015480;28;20902;-53
2022/09/27 00:16:52;;;;;;;;;;;;;;;14.41;56.34;99513.34;5011950;28;19929;-52
2022/09/27 00:19:18;;;;;;;;;;;;;;;14.41;56.37;99516.00;5015196;28;19984;-53
2022/09/27 00:21:45;;;;;;;;;;;;;;;14.41;56.49;99515.19;5022173;28;20019;-52
2022/09/27 00:24:11;;;;;;;;;;;;;;;14.40;56.50;99513.50;5018720;28;19925;-50
2022/09/27 00:26:37;;;;;;;;;;;;;;;14.39;56.55;99509.19;5019206;28;20532;-51
2022/09/27 00:29:03;;;;;;;;;;;;;;;14.38;56.50;99504.88;5017709;28;19929;-51
2022/09/27 00:31:29;;;;;;;;;;;;;;;14.37;56.50;99505.84;5020167;28;19944;-52
2022/09/27 00:33:55;;;;;;;;;;;;;;;14.36;56.69;99504.19;5019455;28;20349;-50
2022/09/27 00:36:22;;;;;;;;;;;;;;;14.35;56.73;99491.91;5023106;28;19929;-54
2022/09/27 00:38:47;;;;;;;;;;;;;;;14.34;56.75;99491.09;5021531;28;19921;-50
2022/09/27 00:41:23;;;;;;;;;;;;;;;14.34;56.73;99491.09;5019097;28;19925;-53
2022/09/27 00:43:52;;;;;;;;;;;;;;;14.35;56.81;99490.13;5022462;28;20305;-51
2022/09/27 00:46:30;;;;;;;;;;;;;;;14.35;56.79;99484.84;5020088;28;19921;-52
2022/09/27 00:49:01;;;;;;;;;;;;;;;14.35;56.87;99491.91;5021094;28;19925;-51
2022/09/27 00:51:27;;;;;;;;;;;;;;;14.33;56.88;99495.53;5017636;28;19923;-51
2022/09/27 00:53:53;;;;;;;;;;;;;;;14.33;56.96;99478.84;5013618;28;19917;-51
2022/09/27 00:56:20;;;;;;;;;;;;;;;14.33;56.94;99489.44;5014090;28;19951;-51
2022/09/27 00:58:51;;;;;;;;;;;;;;;14.33;57.02;99478.84;5013263;28;20026;-51
2022/09/27 01:01:17;;;;;;;;;;;;;;;14.32;57.14;99472.69;5009009;28;20031;-50
2022/09/27 01:04:12;;;;;;;;;;;;;;;14.31;57.19;99473.69;5009473;28;19921;-51
2022/09/27 01:06:38;;;;;;;;;;;;;;;14.31;57.07;99468.38;5020417;28;19925;-51
2022/09/27 01:09:05;;;;;;;;;;;;;;;14.31;57.12;99472.84;5012479;28;19917;-53
2022/09/27 01:11:37;;;;;;;;;;;;;;;14.31;57.19;99463.09;5014876;28;20316;-52
2022/09/27 01:14:21;;;;;;;;;;;;;;;14.31;57.20;99455.16;5011815;28;19917;-52
2022/09/27 01:16:56;;;;;;;;;;;;;;;14.31;57.15;99452.50;5011823;28;19925;-54
2022/09/27 01:19:24;;;;;;;;;;;;;;;14.30;57.24;99453.50;5012252;28;19921;-51
2022/09/27 01:21:55;;;;;;;;;;;;;;;14.32;57.08;99446.25;5012911;28;19960;-50
2022/09/27 01:24:36;;;;;;;;;;;;;;;14.32;57.15;99440.94;5010845;28;19931;-52
2022/09/27 01:27:04;;;;;;;;;;;;;;;14.31;57.15;99438.47;5011602;28;19983;-51
2022/09/27 01:29:48;;;;;;;;;;;;;;;14.31;57.21;99436.63;5012224;28;19924;-50
2022/09/27 01:32:31;;;;;;;;;;;;;;;14.33;57.31;99436.50;5013592;28;19940;-51
2022/09/27 01:35:20;;;;;;;;;;;;;;;14.32;57.24;99430.38;5009857;28;19940;-51
2022/09/27 01:37:49;;;;;;;;;;;;;;;14.33;57.23;99428.56;5019905;28;19939;-52
2022/09/27 01:40:29;;;;;;;;;;;;;;;14.32;57.14;99426.91;5015014;28;19925;-51
2022/09/27 01:43:03;;;;;;;;;;;;;;;14.32;57.14;99418.97;5017246;28;21011;-50
2022/09/27 01:45:28;;;;;;;;;;;;;;;14.35;57.28;99420.47;5010763;28;19979;-50
2022/09/27 01:47:56;;;;;;;;;;;;;;;14.36;57.26;99423.00;5015755;28;19929;-52
2022/09/27 01:50:31;;;;;;;;;;;;;;;14.36;57.12;99420.34;5017009;28;20008;-51
2022/09/27 01:53:09;;;;;;;;;;;;;;;14.35;57.33;99418.69;5018512;28;19979;-52
2022/09/27 01:55:36;;;;;;;;;;;;;;;14.37;57.24;99421.16;5015463;28;20403;-50
2022/09/27 01:58:22;;;;;;;;;;;;;;;14.36;57.31;99416.84;5016327;28;20820;-50
2022/09/27 02:00:49;;;;;;;;;;;;;;;14.35;57.51;99417.81;5004069;28;20380;-51
2022/09/27 02:03:19;;;;;;;;;;;;;;;14.33;57.60;99413.50;5015533;28;21061;-51
2022/09/27 02:05:51;;;;;;;;;;;;;;;14.35;57.55;99409.88;5014925;28;19936;-53
2022/09/27 02:08:42;;;;;;;;;;;;;;;14.33;57.60;99408.22;5020598;28;20270;-54
2022/09/27 02:11:12;;;;;;;;;;;;;;;14.31;57.76;99407.53;5009811;28;19932;-52
2022/09/27 02:13:37;;;;;;;;;;;;;;;14.31;57.81;99390.84;5007290;28;19959;-51
2022/09/27 02:16:20;;;;;;;;;;;;;;;14.30;57.97;99390.00;5015378;28;20034;-51
2022/09/27 02:18:51;;;;;;;;;;;;;;;14.30;58.04;99395.28;5009614;28;19925;-50
2022/09/27 02:21:18;;;;;;;;;;;;;;;14.29;58.03;99388.31;5015112;28;19925;-53
2022/09/27 02:23:47;;;;;;;;;;;;;;;14.29;58.20;99388.31;5016953;28;19933;-51
2022/09/27 02:26:16;;;;;;;;;;;;;;;14.27;58.38;99378.88;5020693;28;19924;-51
2022/09/27 02:29:01;;;;;;;;;;;;;;;14.27;58.42;99379.72;5020398;28;19925;-52
2022/09/27 02:31:27;;;;;;;;;;;;;;;14.25;58.49;99373.75;5019503;28;20364;-50
2022/09/27 02:33:55;;;;;;;;;;;;;;;14.24;58.54;99368.56;5017414;28;19968;-53
2022/09/27 02:36:21;;;;;;;;;;;;;;;14.24;58.64;99369.41;5018792;28;19929;-50
2022/09/27 02:38:47;;;;;;;;;;;;;;;14.22;58.68;99363.44;5018383;28;19923;-51
2022/09/27 02:41:21;;;;;;;;;;;;;;;14.22;58.82;99355.50;5019568;28;20043;-50
2022/09/27 02:43:53;;;;;;;;;;;;;;;14.21;58.81;99358.31;5018555;28;19936;-50
2022/09/27 02:46:28;;;;;;;;;;;;;;;14.20;58.75;99356.63;5012224;28;19967;-50
2022/09/27 02:48:53;;;;;;;;;;;;;;;14.18;58.87;99357.63;5022607;28;20432;-50
2022/09/27 02:51:35;;;;;;;;;;;;;;;14.17;58.89;99352.44;5016949;28;20519;-50
2022/09/27 02:54:09;;;;;;;;;;;;;;;14.17;58.93;99353.31;5018021;28;19933;-51
2022/09/27 02:56:47;;;;;;;;;;;;;;;14.17;59.02;99355.09;5013132;28;20564;-50
2022/09/27 02:59:18;;;;;;;;;;;;;;;14.16;59.06;99350.78;5024229;28;19963;-51
2022/09/27 03:01:47;;;;;;;;;;;;;;;14.15;59.05;99354.41;5020598;28;20361;-51
2022/09/27 03:04:12;;;;;;;;;;;;;;;14.14;59.04;99356.22;5014018;28;20359;-51
2022/09/27 03:06:40;;;;;;;;;;;;;;;14.14;59.12;99352.78;5018851;28;20619;-51
2022/09/27 03:09:12;;;;;;;;;;;;;;;14.13;59.19;99351.91;5020167;28;19929;-50
2022/09/27 03:11:37;;;;;;;;;;;;;;;14.13;59.21;99356.41;5015981;28;19924;-52
2022/09/27 03:14:03;;;;;;;;;;;;;;;14.12;59.29;99355.53;5012133;28;20304;-54
2022/09/27 03:16:28;;;;;;;;;;;;;;;14.12;59.32;99355.53;5016854;28;19932;-52
2022/09/27 03:18:53;;;;;;;;;;;;;;;14.12;59.31;99352.06;5023567;28;24360;-50
2022/09/27 03:21:18;;;;;;;;;;;;;;;14.12;59.36;99354.72;5018063;28;19957;-55
2022/09/27 03:23:44;;;;;;;;;;;;;;;14.11;59.39;99347.75;5014702;28;20017;-50
2022/09/27 03:26:09;;;;;;;;;;;;;;;14.10;59.46;99340.81;5011441;28;19941;-50
2022/09/27 03:28:35;;;;;;;;;;;;;;;14.08;59.67;99335.63;5017669;28;19932;-52
2022/09/27 03:31:00;;;;;;;;;;;;;;;14.08;59.94;99326.88;5015670;28;19940;-53
2022/09/27 03:33:26;;;;;;;;;;;;;;;14.07;59.78;99319.94;5018371;28;19932;-54
2022/09/27 03:35:51;;;;;;;;;;;;;;;14.06;59.91;99321.75;5017291;28;20170;-51
2022/09/27 03:38:16;;;;;;;;;;;;;;;14.06;60.11;99326.19;5016127;28;20515;-50
2022/09/27 03:40:42;;;;;;;;;;;;;;;14.05;60.21;99321.88;5019331;28;19924;-51
2022/09/27 03:43:07;;;;;;;;;;;;;;;14.05;60.28;99324.53;5015652;28;19968;-52
2022/09/27 03:45:32;;;;;;;;;;;;;;;14.02;60.35;99309.81;5019120;28;19928;-52
2022/09/27 03:47:58;;;;;;;;;;;;;;;14.01;60.39;99310.78;5013511;28;19922;-54
2022/09/27 03:50:23;;;;;;;;;;;;;;;13.99;60.50;99299.50;5015503;28;19929;-53
2022/09/27 03:52:49;;;;;;;;;;;;;;;13.99;60.49;99305.63;5013172;28;19956;-53
2022/09/27 03:55:14;;;;;;;;;;;;;;;14.00;60.53;99299.34;5019348;28;20004;-51
2022/09/27 03:57:43;;;;;;;;;;;;;;;13.99;60.72;99296.88;5018937;28;19929;-52
2022/09/27 04:00:09;;;;;;;;;;;;;;;13.98;60.85;99285.47;5011046;28;19933;-53
2022/09/27 04:02:34;;;;;;;;;;;;;;;13.96;60.81;99287.41;5008495;28;19931;-53
2022/09/27 04:04:59;;;;;;;;;;;;;;;13.96;60.89;99289.22;5013450;28;19972;-52
2022/09/27 04:07:25;;;;;;;;;;;;;;;13.94;60.98;99278.78;5010306;28;19932;-53
2022/09/27 04:09:50;;;;;;;;;;;;;;;13.94;60.97;99278.78;5025712;28;19948;-53
2022/09/27 04:12:15;;;;;;;;;;;;;;;13.93;61.11;99287.72;5016322;28;19961;-52
2022/09/27 04:14:41;;;;;;;;;;;;;;;13.93;61.24;99284.22;5010533;28;19929;-51
2022/09/27 04:17:06;;;;;;;;;;;;;;;13.92;61.23;99278.09;5016314;28;19933;-53
2022/09/27 04:19:31;;;;;;;;;;;;;;;13.92;61.29;99278.09;5015922;28;19978;-50
2022/09/27 04:21:57;;;;;;;;;;;;;;;13.91;61.27;99273.78;5021821;28;19935;-50
2022/09/27 04:24:22;;;;;;;;;;;;;;;13.92;61.18;99275.47;5017224;28;20340;-51
2022/09/27 04:26:48;;;;;;;;;;;;;;;13.90;61.49;99272.13;5014005;28;19938;-51
2022/09/27 04:29:13;;;;;;;;;;;;;;;13.87;61.36;99267.97;5020696;28;19931;-52
2022/09/27 04:31:39;;;;;;;;;;;;;;;13.87;61.42;99272.41;5021408;28;19929;-52
2022/09/27 04:34:04;;;;;;;;;;;;;;;13.85;61.52;99261.16;5018161;28;19999;-51
2022/09/27 04:36:29;;;;;;;;;;;;;;;13.86;61.71;99265.47;5022550;28;19929;-52
2022/09/27 04:38:55;;;;;;;;;;;;;;;13.86;61.54;99265.47;5022586;28;19932;-52
2022/09/27 04:41:22;;;;;;;;;;;;;;;13.86;61.71;99262.81;5021117;28;19933;-51
2022/09/27 04:43:47;;;;;;;;;;;;;;;13.85;61.70;99269.06;5022749;28;19936;-50
2022/09/27 04:46:13;;;;;;;;;;;;;;;13.85;61.73;99274.38;5023521;28;19920;-50
2022/09/27 04:48:38;;;;;;;;;;;;;;;13.85;61.67;99266.44;5019516;28;19975;-51
2022/09/27 04:51:04;;;;;;;;;;;;;;;13.86;61.73;99262.81;5015782;28;19917;-51
2022/09/27 04:53:30;;;;;;;;;;;;;;;13.86;61.77;99263.66;5017324;28;20321;-51
2022/09/27 04:55:55;;;;;;;;;;;;;;;13.84;61.76;99262.16;5019971;28;19929;-50
2022/09/27 04:58:21;;;;;;;;;;;;;;;13.84;61.82;99260.31;5012682;28;19924;-51
2022/09/27 05:00:47;;;;;;;;;;;;;;;13.84;61.83;99262.16;5014820;28;19925;-51
2022/09/27 05:03:13;;;;;;;;;;;;;;;13.83;61.86;99260.47;5024872;28;20270;-52
2022/09/27 05:05:40;;;;;;;;;;;;;;;13.83;61.89;99261.31;5015175;28;20316;-52
2022/09/27 05:08:05;;;;;;;;;;;;;;;13.85;61.95;99271.72;5013778;28;19921;-52
2022/09/27 05:10:31;;;;;;;;;;;;;;;13.84;61.98;99262.16;5014469;28;20327;-51
2022/09/27 05:12:56;;;;;;;;;;;;;;;13.83;61.86;99257.84;5005237;28;19979;-53
2022/09/27 05:15:21;;;;;;;;;;;;;;;13.82;61.93;99262.28;5006760;28;20031;-52
2022/09/27 05:17:49;;;;;;;;;;;;;;;13.83;62.00;99261.31;5011167;28;19921;-50
2022/09/27 05:20:15;;;;;;;;;;;;;;;13.82;62.06;99257.00;5013625;28;19924;-54
2022/09/27 05:22:40;;;;;;;;;;;;;;;13.82;62.08;99264.09;5010192;28;19936;-52
2022/09/27 05:25:05;;;;;;;;;;;;;;;13.83;62.21;99260.47;5017015;28;20912;-51
2022/09/27 05:27:31;;;;;;;;;;;;;;;13.81;62.34;99263.25;5014383;28;20354;-50
2022/09/27 05:29:59;;;;;;;;;;;;;;;13.83;62.34;99257.84;5018834;28;20453;-50
2022/09/27 05:32:24;;;;;;;;;;;;;;;13.81;62.35;99260.63;5020704;28;19932;-50
2022/09/27 05:34:52;;;;;;;;;;;;;;;13.82;62.39;99258.81;5016100;28;19932;-53
2022/09/27 05:37:18;;;;;;;;;;;;;;;13.82;62.41;99258.81;5018610;28;19932;-50
2022/09/27 05:39:43;;;;;;;;;;;;;;;13.82;62.50;99257.00;5014539;28;19925;-52
2022/09/27 05:42:09;;;;;;;;;;;;;;;13.83;62.48;99260.47;5011225;28;19960;-49
2022/09/27 05:44:35;;;;;;;;;;;;;;;13.83;62.56;99255.19;5020251;28;19921;-50
2022/09/27 05:47:03;;;;;;;;;;;;;;;13.84;62.48;99259.50;5025847;28;20384;-50
2022/09/27 05:49:28;;;;;;;;;;;;;;;13.85;62.50;99258.50;5024816;28;19931;-52
2022/09/27 05:51:53;;;;;;;;;;;;;;;13.85;62.69;99264.63;5025218;28;19944;-53
2022/09/27 05:54:19;;;;;;;;;;;;;;;13.86;62.64;99265.47;5021226;28;20506;-50
2022/09/27 05:56:44;;;;;;;;;;;;;;;13.86;62.60;99255.72;5021459;28;19968;-53
2022/09/27 05:59:09;;;;;;;;;;;;;;;13.89;62.97;99259.06;5023649;28;20032;-50
2022/09/27 06:01:35;;;;;;;;;;;;;;;13.91;62.69;99257.09;5021885;28;19928;-50
2022/09/27 06:04:01;;;;;;;;;;;;;;;13.93;62.81;99260.41;5022481;28;19975;-50
2022/09/27 06:06:26;;;;;;;;;;;;;;;13.94;62.86;99255.00;5024734;28;20468;-50
2022/09/27 06:08:52;;;;;;;;;;;;;;;13.94;62.96;99255.00;5015883;28;19931;-50
2022/09/27 06:11:17;;;;;;;;;;;;;;;13.96;62.99;99257.47;5025465;28;19925;-51
2022/09/27 06:13:42;;;;;;;;;;;;;;;13.96;63.05;99260.97;5021769;28;20375;-51
2022/09/27 06:16:09;;;;;;;;;;;;;;;13.97;63.01;99254.72;5023289;28;19960;-50
2022/09/27 06:18:35;;;;;;;;;;;;;;;13.96;63.20;99255.69;5024716;28;19925;-51
2022/09/27 06:21:01;;;;;;;;;;;;;;;13.99;63.18;99255.38;5021921;28;19936;-50
2022/09/27 06:23:26;;;;;;;;;;;;;;;14.01;63.22;99256.06;5020420;28;20016;-50
2022/09/27 06:25:52;;;;;;;;;;;;;;;14.03;63.11;99266.50;5020228;28;19947;-51
2022/09/27 06:28:17;;;;;;;;;;;;;;;14.03;63.23;99262.03;5020805;28;20372;-51
2022/09/27 06:30:44;;;;;;;;;;;;;;;14.05;63.33;99255.78;5020838;28;19960;-52
2022/09/27 06:33:11;;;;;;;;;;;;;;;14.07;63.38;99261.75;5021408;28;20377;-50
2022/09/27 06:35:36;;;;;;;;;;;;;;;14.10;63.35;99261.47;5020524;28;19957;-54
2022/09/27 06:38:03;;;;;;;;;;;;;;;14.11;63.26;99263.13;5019348;28;19921;-52
2022/09/27 06:40:29;;;;;;;;;;;;;;;14.13;63.39;99261.16;5020299;28;19926;-50
2022/09/27 06:43:00;;;;;;;;;;;;;;;14.15;63.36;99267.13;5021185;28;19936;-51
2022/09/27 06:45:26;;;;;;;;;;;;;;;14.18;63.32;99264.19;5020032;28;19920;-50
2022/09/27 06:47:52;;;;;;;;;;;;;;;14.19;63.38;99263.19;5021250;28;19926;-51
2022/09/27 06:50:17;;;;;;;;;;;;;;;14.20;63.40;99262.22;5019969;28;19929;-51
2022/09/27 06:52:47;;;;;;;;;;;;;;;14.23;63.42;99261.94;5018156;28;20456;-51
2022/09/27 06:55:13;;;;;;;;;;;;;;;14.25;63.39;99259.13;5019911;28;20028;-51
2022/09/27 07:00:28;;;;;;;;;;;;;;;14.30;63.43;99268.28;5020169;28;19928;-51
2022/09/27 07:02:59;;;;;;;;;;;;;;;14.34;63.49;99263.53;5025360;28;19931;-51
2022/09/27 07:05:25;;;;;;;;;;;;;;;14.38;63.34;99269.38;5024096;28;20293;-50
2022/09/27 07:07:55;;;;;;;;;;;;;;;14.41;63.39;99272.53;5022443;28;21536;-50
2022/09/27 07:10:20;;;;;;;;;;;;;;;14.45;63.33;99275.69;5021635;28;19987;-51
2022/09/27 07:12:47;;;;;;;;;;;;;;;14.49;63.34;99271.78;5019985;28;20376;-51
2022/09/27 07:15:12;;;;;;;;;;;;;;;14.54;63.33;99274.81;5021921;28;19990;-50
2022/09/27 07:17:38;;;;;;;;;;;;;;;14.59;63.30;99272.56;5025510;28;19920;-51
2022/09/27 07:20:03;;;;;;;;;;;;;;;14.64;63.21;99274.75;5023075;28;19979;-51
2022/09/27 07:22:29;;;;;;;;;;;;;;;14.67;63.11;99276.25;5020640;28;19920;-50
2022/09/27 07:24:55;;;;;;;;;;;;;;;14.70;63.20;99270.69;5021700;28;19929;-51
2022/09/27 07:27:21;;;;;;;;;;;;;;;14.73;63.11;99263.28;5021875;28;19928;-52
2022/09/27 07:29:46;;;;;;;;;;;;;;;14.76;63.01;99272.72;5022187;28;19983;-51
2022/09/27 07:32:11;;;;;;;;;;;;;;;14.79;63.00;99272.44;5023026;28;19921;-51
2022/09/27 07:34:37;;;;;;;;;;;;;;;14.81;62.80;99264.34;5022303;28;20023;-51
2022/09/27 07:37:04;;;;;;;;;;;;;;;14.85;62.88;99271.84;5026932;28;19951;-51
2022/09/27 07:39:30;;;;;;;;;;;;;;;14.88;62.70;99276.81;5024756;28;20415;-51
2022/09/27 07:41:55;;;;;;;;;;;;;;;14.93;62.67;99268.41;5024112;28;19999;-50
2022/09/27 07:44:20;;;;;;;;;;;;;;;14.97;62.57;99268.94;5026626;28;20964;-53
2022/09/27 07:46:46;;;;;;;;;;;;;;;15.00;62.42;99279.22;5028631;28;19921;-51
2022/09/27 07:49:11;;;;;;;;;;;;;;;15.01;62.56;99271.13;5023834;28;20444;-51
2022/09/27 07:51:36;;;;;;;;;;;;;;;15.01;62.69;99273.78;5023690;28;19921;-52
2022/09/27 07:54:01;;;;;;;;;;;;;;;15.03;62.65;99278.94;5024290;28;20371;-51
2022/09/27 07:56:27;;;;;;;;;;;;;;;15.04;62.74;99270.81;5024911;28;20873;-52
2022/09/27 07:58:52;;;;;;;;;;;;;;;15.06;62.67;99273.31;5023742;28;20439;-51
2022/09/27 08:01:18;;;;;;;;;;;;;;;15.07;62.73;99270.53;5025279;28;19996;-51
2022/09/27 08:03:43;;;;;;;;;;;;;;;15.09;62.84;99273.84;5026330;28;19928;-51
2022/09/27 08:06:08;;;;;;;;;;;;;;;15.10;62.92;99272.00;5024567;28;19921;-51
2022/09/27 08:08:34;;;;;;;;;;;;;;;15.11;63.02;99271.03;5025565;28;20885;-51
2022/09/27 08:10:59;;;;;;;;;;;;;;;15.14;62.83;99267.22;5023289;28;20011;-51
2022/09/27 08:13:25;;;;;;;;;;;;;;;15.14;62.99;99273.38;5025100;28;20361;-51
2022/09/27 08:15:51;;;;;;;;;;;;;;;15.17;62.99;99270.44;5024569;28;19933;-51
2022/09/27 08:18:17;;;;;;;;;;;;;;;15.19;63.01;99271.09;5026754;28;19930;-51
2022/09/27 08:20:42;;;;;;;;;;;;;;;15.21;62.80;99269.09;5024980;28;20348;-51
2022/09/27 08:23:07;;;;;;;;;;;;;;;15.23;62.86;99269.78;5024667;28;19956;-51
2022/09/27 08:25:33;;;;;;;;;;;;;;;15.24;62.77;99278.59;5020597;28;20356;-53
2022/09/27 08:27:59;;;;;;;;;;;;;;;15.24;62.79;99271.47;5022163;28;19920;-51
2022/09/27 08:30:26;;;;;;;;;;;;;;;15.24;62.82;99275.94;5018823;28;19984;-50
2022/09/27 08:32:55;;;;;;;;;;;;;;;15.23;62.89;99269.78;5021246;28;19963;-51
2022/09/27 08:35:20;;;;;;;;;;;;;;;15.26;62.98;99271.31;5020988;28;19928;-51
2022/09/27 08:37:51;;;;;;;;;;;;;;;15.27;62.83;99265.03;5022998;28;19948;-51
2022/09/27 08:40:18;;;;;;;;;;;;;;;15.27;62.90;99264.19;5021910;28;19925;-51
2022/09/27 08:42:48;;;;;;;;;;;;;;;15.28;62.82;99271.16;5021476;28;20376;-51
2022/09/27 08:45:17;;;;;;;;;;;;;;;15.24;62.83;99266.16;5020728;28;20843;-50
2022/09/27 08:48:02;;;;;;;;;;;;;;;15.24;63.01;99266.16;5019345;28;20416;-51
2022/09/27 08:50:33;;;;;;;;;;;;;;;15.26;63.00;99270.47;5023483;28;19921;-51
2022/09/27 08:53:17;;;;;;;;;;;;;;;15.25;63.11;99269.66;5022227;28;19921;-51
2022/09/27 08:55:50;;;;;;;;;;;;;;;15.23;63.16;99271.63;5015325;28;20359;-51
2022/09/27 08:58:25;;;;;;;;;;;;;;;15.22;63.30;99270.78;5022812;28;19924;-51
2022/09/27 09:00:54;;;;;;;;;;;;;;;15.21;63.27;99274.41;5020256;28;20007;-51
2022/09/27 09:03:21;;;;;;;;;;;;;;;15.20;63.39;99264.78;5023626;28;19971;-51
2022/09/27 09:06:03;;;;;;;;;;;;;;;15.21;63.48;99270.94;5021616;28;20012;-52
2022/09/27 09:08:31;;;;;;;;;;;;;;;15.20;63.51;99263.97;5025670;28;20278;-52
2022/09/27 09:14:18;;;;;;;;;;;;;;;15.20;63.74;99259.50;5023623;28;19932;-50
2022/09/27 09:16:55;;;;;;;;;;;;;;;15.20;63.75;99266.63;5020186;28;20332;-51
2022/09/27 09:19:33;;;;;;;;;;;;;;;15.19;63.88;99262.31;5024952;28;20010;-50
2022/09/27 09:22:01;;;;;;;;;;;;;;;15.21;63.82;99265.66;5024541;28;19925;-50
2022/09/27 09:24:49;;;;;;;;;;;;;;;15.19;63.84;99263.16;5023829;28;20373;-51
2022/09/27 09:27:15;;;;;;;;;;;;;;;15.20;63.98;99264.78;5019666;28;20537;-51
2022/09/27 09:29:49;;;;;;;;;;;;;;;15.21;63.82;99268.28;5022840;28;19929;-50
2022/09/27 09:32:33;;;;;;;;;;;;;;;15.23;63.95;99266.31;5024246;28;19920;-51
2022/09/27 09:35:01;;;;;;;;;;;;;;;15.25;63.90;99272.31;5026081;28;20333;-50
2022/09/27 09:37:41;;;;;;;;;;;;;;;15.28;63.71;99277.28;5024635;28;19975;-51
2022/09/27 09:40:13;;;;;;;;;;;;;;;15.29;63.71;99271.00;5024565;28;19932;-50
2022/09/27 09:42:41;;;;;;;;;;;;;;;15.32;63.76;99275.16;5024665;28;19929;-51
2022/09/27 09:45:07;;;;;;;;;;;;;;;15.33;63.67;99274.19;5023905;28;19917;-51
2022/09/27 09:47:36;;;;;;;;;;;;;;;15.35;63.71;99282.81;5026703;28;19944;-51
2022/09/27 09:50:05;;;;;;;;;;;;;;;15.36;63.71;99281.78;5022194;28;19925;-51
2022/09/27 09:52:52;;;;;;;;;;;;;;;15.37;63.67;99262.25;5026392;28;20039;-52
2022/09/27 09:55:21;;;;;;;;;;;;;;;15.39;63.78;99260.28;5020821;28;19921;-51
2022/09/27 09:57:55;;;;;;;;;;;;;;;15.45;63.90;99257.03;5021668;28;19955;-52
2022/09/27 10:00:20;;;;;;;;;;;;;;;15.52;63.86;99252.75;5023489;28;20015;-52
2022/09/27 10:02:46;;;;;;;;;;;;;;;15.58;63.83;99255.75;5023201;28;20019;-51
2022/09/27 10:05:13;;;;;;;;;;;;;;;15.64;63.80;99260.44;5023036;28;19955;-52
2022/09/27 10:07:39;;;;;;;;;;;;;;;15.67;63.77;99254.81;5023655;28;19972;-52
2022/09/27 10:10:06;;;;;;;;;;;;;;;15.70;63.67;99247.38;5022358;28;19925;-51
2022/09/27 10:12:31;;;;;;;;;;;;;;;15.74;63.79;99250.53;5023636;28;19964;-51
2022/09/27 10:14:59;;;;;;;;;;;;;;;15.75;63.45;99256.66;5023755;28;19968;-50
2022/09/27 10:17:38;;;;;;;;;;;;;;;15.73;63.53;99256.84;5020849;28;20125;-51
2022/09/27 10:20:05;;;;;;;;;;;;;;;15.72;63.32;99259.66;5021787;28;19921;-51
2022/09/27 10:22:44;;;;;;;;;;;;;;;15.68;63.60;99267.91;5020044;28;19928;-50
2022/09/27 10:25:09;;;;;;;;;;;;;;;15.63;63.44;99261.44;5019994;28;19920;-51
2022/09/27 10:27:49;;;;;;;;;;;;;;;15.58;63.51;99258.41;5022467;28;19935;-51
2022/09/27 10:30:22;;;;;;;;;;;;;;;15.53;63.78;99251.75;5019341;28;20309;-50
2022/09/27 10:32:50;;;;;;;;;;;;;;;15.53;63.77;99250.94;5021888;28;19979;-50
2022/09/27 10:35:28;;;;;;;;;;;;;;;15.55;63.85;99247.13;5019917;28;19957;-51
2022/09/27 10:37:53;;;;;;;;;;;;;;;15.58;63.78;99248.63;5020423;28;20654;-50
2022/09/27 10:40:29;;;;;;;;;;;;;;;15.61;63.78;99247.50;5021416;28;20361;-51
2022/09/27 10:42:54;;;;;;;;;;;;;;;15.65;63.83;99240.91;5021843;28;21106;-53
2022/09/27 10:45:23;;;;;;;;;;;;;;;15.65;63.83;99238.25;5021620;28;19936;-52
2022/09/27 10:47:48;;;;;;;;;;;;;;;15.67;63.85;99236.25;5020447;28;19979;-51
2022/09/27 10:50:25;;;;;;;;;;;;;;;15.68;63.87;99236.09;5025684;28;19929;-54
2022/09/27 10:53:02;;;;;;;;;;;;;;;15.70;63.73;99239.44;5021869;28;19914;-52
2022/09/27 10:55:30;;;;;;;;;;;;;;;15.73;63.66;99240.94;5021991;28;19928;-51
2022/09/27 10:57:55;;;;;;;;;;;;;;;15.76;63.66;99237.13;5022268;28;19925;-51
2022/09/27 11:00:23;;;;;;;;;;;;;;;15.77;63.53;99228.16;5024550;28;19929;-51
2022/09/27 11:02:53;;;;;;;;;;;;;;;15.76;63.47;99235.31;5023313;28;20269;-51
2022/09/27 11:05:26;;;;;;;;;;;;;;;15.74;63.51;99224.03;5021359;28;19921;-52
2022/09/27 11:07:56;;;;;;;;;;;;;;;15.74;63.46;99221.38;5025143;28;19917;-51
2022/09/27 11:10:31;;;;;;;;;;;;;;;15.78;63.43;99225.38;5027730;28;19917;-51
2022/09/27 11:13:10;;;;;;;;;;;;;;;15.81;63.43;99230.34;5029622;28;20304;-51
2022/09/27 11:15:43;;;;;;;;;;;;;;;15.86;63.38;99227.25;5016307;28;19929;-51
2022/09/27 11:18:14;;;;;;;;;;;;;;;15.89;63.38;99234.06;5018068;28;19917;-51
2022/09/27 11:20:46;;;;;;;;;;;;;;;15.90;63.29;99233.06;5021874;28;20012;-52
2022/09/27 11:23:14;;;;;;;;;;;;;;;15.91;63.05;99234.72;5019970;28;19999;-51
2022/09/27 11:26:06;;;;;;;;;;;;;;;15.90;63.13;99243.69;5023375;28;19924;-51
2022/09/27 11:28:56;;;;;;;;;;;;;;;15.88;63.07;99240.34;5014090;28;20044;-52
2022/09/27 11:31:34;;;;;;;;;;;;;;;15.84;63.03;99237.97;5015696;28;19925;-51
2022/09/27 11:34:18;;;;;;;;;;;;;;;15.81;63.19;99240.13;5015120;28;20015;-51
2022/09/27 11:37:10;;;;;;;;;;;;;;;15.78;63.29;99235.97;5013412;28;20019;-51
2022/09/27 11:39:54;;;;;;;;;;;;;;;15.76;63.33;99227.34;5016837;28;19917;-52
2022/09/27 11:42:22;;;;;;;;;;;;;;;15.75;63.41;99227.50;5013261;28;19932;-52
2022/09/27 11:44:53;;;;;;;;;;;;;;;15.74;63.41;99220.53;5009639;28;19967;-52
2022/09/27 11:47:32;;;;;;;;;;;;;;;15.73;63.37;99222.38;5019672;28;19917;-52
2022/09/27 11:50:18;;;;;;;;;;;;;;;15.74;63.20;99220.53;5014599;28;20036;-52
2022/09/27 11:52:43;;;;;;;;;;;;;;;15.74;63.04;99215.22;5014563;28;19921;-51
2022/09/27 11:55:12;;;;;;;;;;;;;;;15.71;63.16;99221.69;5020058;28;19936;-52
2022/09/27 11:57:41;;;;;;;;;;;;;;;15.69;63.17;99221.00;5023357;28;19917;-51
2022/09/27 12:00:13;;;;;;;;;;;;;;;15.68;63.22;99219.34;5023490;28;20418;-50
2022/09/27 12:02:48;;;;;;;;;;;;;;;15.68;63.33;99216.69;5025873;28;19917;-50
2022/09/27 12:05:32;;;;;;;;;;;;;;;15.70;63.51;99212.06;5024149;28;19928;-50
2022/09/27 12:08:16;;;;;;;;;;;;;;;15.73;63.50;99211.75;5027567;28;19928;-51
2022/09/27 12:10:45;;;;;;;;;;;;;;;15.72;63.43;99212.75;5020562;28;19920;-51
2022/09/27 12:13:12;;;;;;;;;;;;;;;15.74;63.50;99210.78;5023158;28;19925;-51
2022/09/27 12:15:41;;;;;;;;;;;;;;;15.76;63.52;99208.78;5023885;28;19933;-50
2022/09/27 12:18:28;;;;;;;;;;;;;;;15.81;63.53;99213.59;5023355;28;19925;-51
2022/09/27 12:20:54;;;;;;;;;;;;;;;15.89;63.28;99205.69;5023517;28;20456;-52
2022/09/27 12:23:19;;;;;;;;;;;;;;;15.96;63.18;99205.88;5021686;28;19936;-50
2022/09/27 12:25:49;;;;;;;;;;;;;;;16.03;63.16;99201.59;5022316;28;20332;-51
2022/09/27 12:28:24;;;;;;;;;;;;;;;16.11;63.10;99198.16;5022175;28;19924;-50
2022/09/27 12:30:54;;;;;;;;;;;;;;;16.18;63.01;99199.16;5022696;28;19999;-51
2022/09/27 12:33:30;;;;;;;;;;;;;;;16.24;62.86;99203.00;5023361;28;19921;-52
2022/09/27 12:35:58;;;;;;;;;;;;;;;16.26;62.54;99199.16;5023288;28;19924;-52
2022/09/27 12:38:44;;;;;;;;;;;;;;;16.27;62.67;99197.34;5020687;28;20507;-51
2022/09/27 12:41:12;;;;;;;;;;;;;;;16.25;62.67;99194.84;5023395;28;19929;-51
2022/09/27 12:43:40;;;;;;;;;;;;;;;16.22;62.53;99199.66;5021792;28;19967;-51
2022/09/27 12:46:05;;;;;;;;;;;;;;;16.19;62.49;99194.69;5021956;28;19979;-51
2022/09/27 12:48:40;;;;;;;;;;;;;;;16.13;62.43;99194.31;5024262;28;19956;-52
2022/09/27 12:51:07;;;;;;;;;;;;;;;16.09;62.49;99195.66;5022463;28;19922;-51
2022/09/27 12:53:52;;;;;;;;;;;;;;;16.06;62.44;99190.69;5026706;28;19932;-50
2022/09/27 12:56:24;;;;;;;;;;;;;;;16.04;62.50;99192.66;5021173;28;19929;-54
2022/09/27 12:59:09;;;;;;;;;;;;;;;16.02;62.67;99183.22;5027684;28;19926;-51
2022/09/27 13:01:49;;;;;;;;;;;;;;;16.02;62.78;99184.03;5024732;28;19932;-52
2022/09/27 13:04:20;;;;;;;;;;;;;;;16.05;62.76;99183.72;5025641;28;20013;-52
2022/09/27 13:06:58;;;;;;;;;;;;;;;16.12;62.77;99183.88;5020059;28;19917;-51